createdAt,value
2023-02-16T00:04:46.044Z,57.69
2023-02-16T00:09:47.558Z,57.00
2023-02-16T00:14:49.082Z,57.05
2023-02-16T00:19:50.600Z,56.75
2023-02-16T00:24:52.181Z,57.10
2023-02-16T00:29:53.745Z,57.52
2023-02-16T00:34:55.223Z,57.50
2023-02-16T00:39:56.663Z,57.49
2023-02-16T00:44:59.175Z,56.86
2023-02-16T00:50:00.799Z,57.34
2023-02-16T00:55:06.362Z,57.56
2023-02-16T01:00:17.447Z,57.22
2023-02-16T01:05:19.458Z,57.62
2023-02-16T01:10:21.198Z,57.81
2023-02-16T01:15:25.954Z,57.57
2023-02-16T01:20:28.550Z,57.28
2023-02-16T01:25:30.439Z,56.95
2023-02-16T01:30:32.167Z,57.27
2023-02-16T01:35:34.440Z,57.76
2023-02-16T01:40:41.187Z,58.16
2023-02-16T01:45:48.076Z,57.36
2023-02-16T01:50:59.301Z,57.48
2023-02-16T01:56:05.673Z,57.23
2023-02-16T02:01:41.480Z,57.20
2023-02-16T02:06:43.665Z,57.08
2023-02-16T02:11:58.106Z,58.02
2023-02-16T02:17:05.427Z,58.04
2023-02-16T02:22:29.948Z,58.18
2023-02-16T02:27:39.354Z,57.68
2023-02-16T02:32:58.675Z,57.36
2023-02-16T02:38:15.641Z,57.21
2023-02-16T02:43:38.512Z,57.52
2023-02-16T02:48:40.055Z,57.73
2023-02-16T02:53:47.576Z,57.42
2023-02-16T02:58:53.121Z,57.99
2023-02-16T03:03:58.015Z,58.05
2023-02-16T03:09:09.309Z,57.36
2023-02-16T03:14:24.820Z,57.65
2023-02-16T03:19:32.373Z,57.95
2023-02-16T03:24:34.259Z,57.55
2023-02-16T03:35:52.353Z,57.46
2023-02-16T03:40:54.361Z,57.35
2023-02-16T03:45:55.909Z,57.81
2023-02-16T03:50:57.455Z,59.02
2023-02-16T03:55:58.932Z,58.61
2023-02-16T04:01:00.667Z,58.96
2023-02-16T04:06:02.622Z,58.64
2023-02-16T04:11:04.515Z,57.90
2023-02-16T04:16:06.258Z,58.00
2023-02-16T04:21:07.707Z,57.49
2023-02-16T04:26:09.222Z,57.77
2023-02-16T04:31:10.744Z,57.61
2023-02-16T04:36:12.260Z,57.74
2023-02-16T04:41:13.765Z,57.74
2023-02-16T04:46:15.220Z,57.92
2023-02-16T04:51:16.785Z,58.41
2023-02-16T04:56:18.329Z,58.12
2023-02-16T05:01:26.187Z,58.44
2023-02-16T05:06:27.751Z,58.78
2023-02-16T05:11:29.254Z,58.78
2023-02-16T05:16:30.746Z,58.67
2023-02-16T05:21:32.285Z,57.91
2023-02-16T05:26:35.483Z,57.56
2023-02-16T05:31:37.003Z,57.30
2023-02-16T05:36:38.592Z,57.97
2023-02-16T05:41:40.500Z,58.01
2023-02-16T05:46:42.526Z,57.97
2023-02-16T05:51:44.304Z,58.66
2023-02-16T05:56:48.066Z,58.81
2023-02-16T06:01:52.140Z,58.66
2023-02-16T06:06:54.511Z,58.64
2023-02-16T06:11:55.956Z,59.04
2023-02-16T06:16:57.455Z,58.61
2023-02-16T06:21:58.975Z,58.83
2023-02-16T06:27:00.493Z,59.20
2023-02-16T06:32:02.200Z,59.07
2023-02-16T06:37:03.867Z,58.62
2023-02-16T06:42:05.431Z,58.72
2023-02-16T06:47:06.867Z,58.77
2023-02-16T06:52:08.336Z,58.12
2023-02-16T06:57:09.827Z,58.11
2023-02-16T07:02:11.487Z,58.79
2023-02-16T07:07:13.091Z,59.17
2023-02-16T07:12:14.618Z,59.38
2023-02-16T07:17:16.116Z,59.38
2023-02-16T07:22:17.631Z,59.40
2023-02-16T07:27:19.088Z,59.24
2023-02-16T07:32:20.560Z,59.08
2023-02-16T07:37:22.132Z,58.53
2023-02-16T07:42:23.625Z,58.22
2023-02-16T07:47:27.820Z,58.21
2023-02-16T07:52:29.331Z,58.87
2023-02-16T07:57:30.774Z,58.64
2023-02-16T08:02:32.345Z,59.50
2023-02-16T08:07:33.844Z,59.82
2023-02-16T08:12:35.378Z,59.33
2023-02-16T08:17:37.006Z,58.75
2023-02-16T08:22:38.475Z,59.50
2023-02-16T08:27:39.920Z,59.66
2023-02-16T08:32:41.373Z,58.56
2023-02-16T08:37:42.819Z,58.02
2023-02-16T08:42:44.304Z,57.78
2023-02-16T08:47:45.805Z,55.92
2023-02-16T08:52:47.256Z,56.13
2023-02-16T08:57:48.760Z,56.38
2023-02-16T09:02:50.286Z,56.36
2023-02-16T09:07:51.746Z,55.93
2023-02-16T09:12:53.327Z,55.64
2023-02-16T09:17:54.768Z,52.59
2023-02-16T09:22:56.333Z,51.83
2023-02-16T09:27:57.863Z,51.05
2023-02-16T09:33:00.007Z,49.75
2023-02-16T09:38:01.549Z,48.94
2023-02-16T09:43:18.003Z,49.11
2023-02-16T09:48:40.114Z,49.59
2023-02-16T09:53:43.472Z,48.47
2023-02-16T09:59:15.717Z,47.65
2023-02-16T10:04:36.717Z,47.50
2023-02-16T10:09:40.472Z,47.20
2023-02-16T10:14:49.767Z,46.00
2023-02-16T10:20:18.098Z,44.63
2023-02-16T10:25:32.022Z,44.99
2023-02-16T10:30:33.576Z,44.05
2023-02-16T10:35:45.545Z,42.46
2023-02-16T10:41:19.994Z,41.56
2023-02-16T10:46:46.908Z,41.18
2023-02-16T10:51:51.851Z,40.12
2023-02-16T10:57:00.548Z,38.70
2023-02-16T11:02:20.231Z,34.94
2023-02-16T11:07:24.745Z,32.29
2023-02-16T11:12:35.772Z,31.13
2023-02-16T11:17:48.865Z,31.69
2023-02-16T11:22:50.367Z,32.28
2023-02-16T11:27:57.889Z,31.83
2023-02-16T11:33:05.411Z,29.34
2023-02-16T11:38:21.933Z,26.07
2023-02-16T11:43:27.830Z,23.07
2023-02-16T11:48:32.283Z,21.22
2023-02-16T11:53:36.924Z,20.95
2023-02-16T11:58:39.484Z,18.50
2023-02-16T12:04:14.881Z,17.47
2023-02-16T12:09:29.031Z,16.03
2023-02-16T12:14:49.710Z,16.77
2023-02-16T12:20:20.800Z,16.42
2023-02-16T12:25:42.148Z,13.17
2023-02-16T12:31:12.955Z,12.43
2023-02-16T12:36:45.199Z,13.17
2023-02-16T12:41:52.819Z,13.27
2023-02-16T12:47:02.052Z,12.27
2023-02-16T12:52:11.774Z,11.41
2023-02-16T12:57:15.935Z,11.49
2023-02-16T13:02:24.121Z,11.22
2023-02-16T13:07:41.593Z,10.22
2023-02-16T13:13:00.745Z,11.26
2023-02-16T13:18:06.778Z,10.84
2023-02-16T13:23:30.108Z,10.16
2023-02-16T13:29:02.538Z,10.33
2023-02-16T13:34:28.308Z,10.82
2023-02-16T13:39:40.763Z,11.55
2023-02-16T13:44:48.372Z,12.41
2023-02-16T13:49:57.393Z,13.42
2023-02-16T13:55:02.065Z,13.14
2023-02-16T14:00:04.571Z,13.82
2023-02-16T14:05:24.262Z,14.68
2023-02-16T14:10:51.934Z,14.56
2023-02-16T14:15:56.020Z,14.89
2023-02-16T14:21:03.488Z,14.76
2023-02-16T14:26:06.873Z,14.77
2023-02-16T14:31:17.919Z,16.20
2023-02-16T14:36:22.588Z,17.32
2023-02-16T14:41:28.038Z,17.54
2023-02-16T14:46:35.779Z,17.87
2023-02-16T14:51:58.818Z,17.83
2023-02-16T14:57:07.191Z,18.75
2023-02-16T15:02:32.302Z,19.76
2023-02-16T15:07:33.832Z,20.62
2023-02-16T15:12:39.398Z,20.37
2023-02-16T15:17:45.092Z,21.34
2023-02-16T15:22:55.684Z,21.44
2023-02-16T15:28:00.232Z,22.13
2023-02-16T15:33:25.384Z,23.07
2023-02-16T15:38:32.451Z,22.97
2023-02-16T15:43:37.383Z,23.59
2023-02-16T15:48:39.250Z,24.29
2023-02-16T15:54:00.805Z,25.27
2023-02-16T15:59:14.532Z,25.58
2023-02-16T16:04:24.986Z,26.64
2023-02-16T16:09:32.378Z,26.84
2023-02-16T16:14:40.402Z,26.99
2023-02-16T16:19:42.447Z,26.86
2023-02-16T16:24:43.929Z,27.56
2023-02-16T16:29:47.381Z,28.33
2023-02-16T16:34:49.972Z,28.95
2023-02-16T16:40:01.164Z,29.72
2023-02-16T16:45:20.666Z,30.42
2023-02-16T16:50:39.649Z,30.79
2023-02-16T16:55:41.394Z,32.15
2023-02-16T17:00:42.928Z,32.24
2023-02-16T17:05:45.935Z,32.94
2023-02-16T17:10:47.511Z,32.67
2023-02-16T17:15:56.509Z,33.40
2023-02-16T17:20:58.317Z,33.19
2023-02-16T17:25:59.822Z,33.70
2023-02-16T17:31:01.346Z,33.64
2023-02-16T17:36:05.350Z,34.48
2023-02-16T17:41:07.162Z,35.01
2023-02-16T17:46:09.197Z,35.85
2023-02-16T17:51:15.773Z,35.60
2023-02-16T17:56:20.103Z,36.05
2023-02-16T18:01:22.358Z,35.57
2023-02-16T18:06:23.999Z,35.53
2023-02-16T18:11:26.206Z,35.29
2023-02-16T18:16:27.840Z,34.67
2023-02-16T18:21:29.347Z,34.86
2023-02-16T18:26:30.811Z,34.50
2023-02-16T18:31:32.415Z,33.82
2023-02-16T18:36:34.067Z,34.86
2023-02-16T18:41:36.068Z,34.38
2023-02-16T18:46:37.556Z,34.54
2023-02-16T18:51:39.087Z,35.06
2023-02-16T18:56:40.640Z,34.93
2023-02-16T19:01:42.276Z,35.34
2023-02-16T19:06:43.817Z,36.09
2023-02-16T19:11:45.428Z,35.84
2023-02-16T19:16:46.992Z,36.08
2023-02-16T19:21:48.559Z,36.97
2023-02-16T19:26:50.060Z,37.15
2023-02-16T19:31:51.628Z,37.31
2023-02-16T19:36:53.209Z,36.97
2023-02-16T19:41:54.668Z,36.20
2023-02-16T19:46:56.214Z,36.91
2023-02-16T19:51:57.749Z,36.76
2023-02-16T19:56:59.187Z,36.96
2023-02-16T20:02:02.002Z,35.97
2023-02-16T20:07:03.757Z,36.20
2023-02-16T20:12:05.781Z,36.46
2023-02-16T20:17:07.376Z,36.04
2023-02-16T20:22:08.910Z,36.26
2023-02-16T20:27:11.474Z,36.43
2023-02-16T20:32:13.012Z,37.18
2023-02-16T20:37:14.528Z,37.11
2023-02-16T20:42:16.048Z,37.80
2023-02-16T20:47:17.535Z,37.67
2023-02-16T20:52:19.071Z,37.93
2023-02-16T20:57:26.821Z,37.95
2023-02-16T21:02:28.713Z,38.06
2023-02-16T21:07:30.206Z,37.69
2023-02-16T21:12:31.782Z,37.51
2023-02-16T21:17:33.424Z,37.99
2023-02-16T21:22:34.997Z,38.17
2023-02-16T21:27:36.498Z,38.35
2023-02-16T21:32:37.951Z,38.93
2023-02-16T21:37:39.475Z,39.87
2023-02-16T21:42:40.918Z,39.10
2023-02-16T21:47:44.806Z,38.86
2023-02-16T21:52:46.279Z,38.57
2023-02-16T21:57:47.782Z,39.11
2023-02-16T22:02:49.309Z,38.45
2023-02-16T22:07:51.659Z,38.31
2023-02-16T22:12:53.777Z,38.38
2023-02-16T22:17:55.415Z,38.91
2023-02-16T22:22:57.052Z,38.76
2023-02-16T22:27:58.541Z,39.35
2023-02-16T22:33:00.047Z,38.91
2023-02-16T22:38:01.581Z,39.15
2023-02-16T22:43:03.047Z,39.48
2023-02-16T22:48:05.107Z,39.75
2023-02-16T22:53:06.597Z,39.50
2023-02-16T22:58:08.121Z,39.04
2023-02-16T23:03:09.609Z,39.37
2023-02-16T23:08:11.639Z,38.90
2023-02-16T23:13:13.105Z,39.09
2023-02-16T23:18:14.548Z,39.48
2023-02-16T23:23:16.137Z,39.78
2023-02-16T23:28:18.318Z,39.46
2023-02-16T23:33:19.767Z,39.33
2023-02-16T23:38:22.041Z,39.45
2023-02-16T23:43:23.699Z,39.05
2023-02-16T23:48:25.327Z,39.20
2023-02-16T23:53:28.125Z,38.88
2023-02-16T23:58:31.640Z,39.28
